createdAt,value
2023-05-06T00:00:16.280Z,49.9
2023-05-06T00:05:16.243Z,49.7
2023-05-06T00:10:16.545Z,49.5
2023-05-06T00:15:16.493Z,49.5
2023-05-06T00:20:16.309Z,49.3
2023-05-06T00:25:16.240Z,49.2
2023-05-06T00:30:16.318Z,49.1
2023-05-06T00:35:16.359Z,49.0
2023-05-06T00:40:16.335Z,49.0
2023-05-06T00:45:16.388Z,48.9
2023-05-06T00:50:16.434Z,48.9
2023-05-06T00:55:16.304Z,48.8
2023-05-06T01:00:16.398Z,48.8
2023-05-06T01:05:16.390Z,48.7
2023-05-06T01:10:16.336Z,48.7
2023-05-06T01:15:16.515Z,48.7
2023-05-06T01:20:16.362Z,48.7
2023-05-06T01:25:16.509Z,48.8
2023-05-06T01:30:16.386Z,48.9
2023-05-06T01:35:16.395Z,49.0
2023-05-06T01:40:16.484Z,49.1
2023-05-06T01:45:16.534Z,49.2
2023-05-06T01:50:16.459Z,49.4
2023-05-06T01:55:16.524Z,49.4
2023-05-06T02:00:16.440Z,49.6
2023-05-06T02:05:16.457Z,49.6
2023-05-06T02:10:16.488Z,49.7
2023-05-06T02:15:16.503Z,49.7
2023-05-06T02:20:16.497Z,49.7
2023-05-06T02:25:16.575Z,49.7
2023-05-06T02:30:16.527Z,49.7
2023-05-06T02:35:16.551Z,49.6
2023-05-06T02:40:16.663Z,49.5
2023-05-06T02:45:16.602Z,49.4
2023-05-06T02:50:16.649Z,49.3
2023-05-06T02:55:16.583Z,49.3
2023-05-06T03:00:16.515Z,49.2
2023-05-06T03:05:16.548Z,49.2
2023-05-06T03:10:16.568Z,49.2
2023-05-06T03:15:16.593Z,49.2
2023-05-06T03:20:16.607Z,49.2
2023-05-06T03:25:16.752Z,48.9
2023-05-06T03:30:16.664Z,48.8
2023-05-06T03:35:16.791Z,48.8
2023-05-06T03:40:16.687Z,48.8
2023-05-06T03:45:16.759Z,48.8
2023-05-06T03:50:16.710Z,48.7
2023-05-06T03:55:16.694Z,48.6
2023-05-06T04:00:15.729Z,48.6
2023-05-06T04:05:15.766Z,48.6
2023-05-06T04:10:15.752Z,48.5
2023-05-06T04:15:16.047Z,48.3
2023-05-06T04:20:15.928Z,48.2
2023-05-06T04:25:15.796Z,48.0
2023-05-06T04:30:15.733Z,48.0
2023-05-06T04:35:15.753Z,47.8
2023-05-06T04:40:15.818Z,47.8
2023-05-06T04:45:16.163Z,47.7
2023-05-06T04:50:15.859Z,47.7
2023-05-06T04:55:15.798Z,47.7
2023-05-06T05:00:15.762Z,47.6
2023-05-06T05:05:15.866Z,47.6
2023-05-06T05:10:15.841Z,47.6
2023-05-06T05:15:15.842Z,47.6
2023-05-06T05:20:15.899Z,47.6
2023-05-06T05:25:16.013Z,47.4
2023-05-06T05:30:16.001Z,47.2
2023-05-06T05:35:15.930Z,47.0
2023-05-06T05:40:17.193Z,46.9
2023-05-06T05:45:15.939Z,46.9
2023-05-06T05:50:16.095Z,46.9
2023-05-06T05:55:15.928Z,46.9
2023-05-06T06:00:16.010Z,47.0
2023-05-06T06:05:16.003Z,47.1
2023-05-06T06:10:15.987Z,47.0
2023-05-06T06:15:15.941Z,47.0
2023-05-06T06:20:15.968Z,47.1
2023-05-06T06:25:15.935Z,47.2
2023-05-06T06:30:16.096Z,47.2
2023-05-06T06:35:16.037Z,47.2
2023-05-06T06:40:16.049Z,47.2
2023-05-06T06:45:16.079Z,47.2
2023-05-06T06:50:16.071Z,47.2
2023-05-06T06:55:16.055Z,47.3
2023-05-06T07:00:16.087Z,47.7
2023-05-06T07:05:16.150Z,48.2
2023-05-06T07:10:16.074Z,48.5
2023-05-06T07:15:16.375Z,48.4
2023-05-06T07:20:16.289Z,48.4
2023-05-06T07:25:16.178Z,48.4
2023-05-06T07:30:16.231Z,48.3
2023-05-06T07:35:16.128Z,48.3
2023-05-06T07:40:16.181Z,48.2
2023-05-06T07:45:16.142Z,48.1
2023-05-06T07:50:16.150Z,48.0
2023-05-06T07:55:16.365Z,48.0
2023-05-06T08:00:16.123Z,48.0
2023-05-06T08:05:16.250Z,48.1
2023-05-06T08:10:16.174Z,48.2
2023-05-06T08:15:16.322Z,48.3
2023-05-06T08:20:16.285Z,48.4
2023-05-06T08:25:16.218Z,48.5
2023-05-06T08:30:16.217Z,48.5
2023-05-06T08:35:16.251Z,48.3
2023-05-06T08:40:16.202Z,48.3
2023-05-06T08:45:16.304Z,48.3
2023-05-06T08:50:16.285Z,48.3
2023-05-06T08:55:16.299Z,48.2
2023-05-06T09:00:16.344Z,48.2
2023-05-06T09:05:16.416Z,48.1
2023-05-06T09:10:16.309Z,48.0
2023-05-06T09:15:16.345Z,47.8
2023-05-06T09:20:16.352Z,47.6
2023-05-06T09:25:16.496Z,47.3
2023-05-06T09:30:16.399Z,47.1
2023-05-06T09:35:16.372Z,47.0
2023-05-06T09:40:16.450Z,46.9
2023-05-06T09:45:16.376Z,46.8
2023-05-06T09:50:16.373Z,46.9
2023-05-06T09:55:16.477Z,46.9
2023-05-06T10:00:16.533Z,47.2
2023-05-06T10:05:17.041Z,47.8
2023-05-06T10:10:16.513Z,48.5
2023-05-06T10:15:17.030Z,49.0
2023-05-06T10:20:16.515Z,49.4
2023-05-06T10:25:16.551Z,49.8
2023-05-06T10:30:16.483Z,50.0
2023-05-06T10:35:16.547Z,50.4
2023-05-06T10:40:16.627Z,50.8
2023-05-06T10:45:16.622Z,51.2
2023-05-06T10:50:16.602Z,51.8
2023-05-06T10:55:16.738Z,52.3
2023-05-06T11:00:16.655Z,52.9
2023-05-06T11:05:16.591Z,53.3
2023-05-06T11:10:16.550Z,53.8
2023-05-06T11:15:16.615Z,54.1
2023-05-06T11:20:16.668Z,54.4
2023-05-06T11:25:16.760Z,54.7
2023-05-06T11:30:16.656Z,55.0
2023-05-06T11:35:16.714Z,55.2
2023-05-06T11:40:16.740Z,55.4
2023-05-06T11:45:16.616Z,55.5
2023-05-06T11:50:16.608Z,55.7
2023-05-06T11:55:16.698Z,56.0
2023-05-06T12:00:16.643Z,56.5
2023-05-06T12:05:16.698Z,57.0
2023-05-06T12:10:16.927Z,57.3
2023-05-06T12:15:16.794Z,57.7
2023-05-06T12:20:16.753Z,57.9
2023-05-06T12:25:16.704Z,58.3
2023-05-06T12:30:16.726Z,58.5
2023-05-06T12:35:16.761Z,58.9
2023-05-06T12:40:16.798Z,59.1
2023-05-06T12:45:18.424Z,59.3
2023-05-06T12:50:16.869Z,59.6
2023-05-06T12:55:16.913Z,59.9
2023-05-06T13:00:16.779Z,60.1
2023-05-06T13:05:16.796Z,60.3
2023-05-06T13:10:16.870Z,60.3
2023-05-06T13:15:16.902Z,60.6
2023-05-06T13:20:16.888Z,60.8
2023-05-06T13:25:16.904Z,61.1
2023-05-06T13:30:16.833Z,61.4
2023-05-06T13:35:16.881Z,61.7
2023-05-06T13:40:17.068Z,62.0
2023-05-06T13:45:16.952Z,62.3
2023-05-06T13:50:16.872Z,62.6
2023-05-06T13:55:18.681Z,62.9
2023-05-06T14:00:16.970Z,62.9
2023-05-06T14:05:17.193Z,62.9
2023-05-06T14:10:16.903Z,63.2
2023-05-06T14:15:16.956Z,63.5
2023-05-06T14:20:17.068Z,63.6
2023-05-06T14:25:16.938Z,63.5
2023-05-06T14:30:17.119Z,63.4
2023-05-06T14:35:17.030Z,63.5
2023-05-06T14:40:17.685Z,63.7
2023-05-06T14:45:17.254Z,64.0
2023-05-06T14:50:17.049Z,64.5
2023-05-06T14:55:17.083Z,64.5
2023-05-06T15:00:17.005Z,64.9
2023-05-06T15:05:17.130Z,65.2
2023-05-06T15:10:17.147Z,65.5
2023-05-06T15:15:17.395Z,65.7
2023-05-06T15:20:17.242Z,66.3
2023-05-06T15:25:30.339Z,66.7
2023-05-06T15:30:17.078Z,67.2
2023-05-06T15:35:17.148Z,67.7
2023-05-06T15:40:17.107Z,68.0
2023-05-06T15:45:17.172Z,68.2
2023-05-06T15:50:31.624Z,68.5
2023-05-06T15:55:17.295Z,68.8
2023-05-06T16:00:17.124Z,69.1
2023-05-06T16:05:17.165Z,69.4
2023-05-06T16:10:17.150Z,69.6
2023-05-06T16:15:17.242Z,69.7
2023-05-06T16:20:17.193Z,70.0
2023-05-06T16:25:17.323Z,70.2
2023-05-06T16:30:17.223Z,70.6
2023-05-06T16:35:17.210Z,71.0
2023-05-06T16:40:17.270Z,71.5
2023-05-06T16:45:17.293Z,71.6
2023-05-06T16:50:17.270Z,71.9
2023-05-06T16:55:17.283Z,72.4
2023-05-06T17:00:17.427Z,73.3
2023-05-06T17:05:18.641Z,73.9
2023-05-06T17:10:17.290Z,74.3
2023-05-06T17:15:17.307Z,74.0
2023-05-06T17:20:17.354Z,73.7
2023-05-06T17:25:17.269Z,73.5
2023-05-06T17:30:17.384Z,73.3
2023-05-06T17:35:17.452Z,73.4
2023-05-06T17:40:17.272Z,73.5
2023-05-06T17:45:17.474Z,74.0
2023-05-06T17:50:17.371Z,74.1
2023-05-06T17:55:17.856Z,73.8
2023-05-06T18:00:17.544Z,73.8
2023-05-06T18:05:17.675Z,73.9
2023-05-06T18:10:15.410Z,73.7
2023-05-06T18:15:15.752Z,73.5
2023-05-06T18:20:15.504Z,73.8
2023-05-06T18:25:15.480Z,73.9
2023-05-06T18:30:15.529Z,73.6
2023-05-06T18:35:15.494Z,73.4
2023-05-06T18:40:15.501Z,73.8
2023-05-06T18:45:15.416Z,74.1
2023-05-06T18:50:15.625Z,74.1
2023-05-06T18:55:15.500Z,74.2
2023-05-06T19:00:15.457Z,74.1
2023-05-06T19:05:15.626Z,74.5
2023-05-06T19:10:15.678Z,75.1
2023-05-06T19:15:15.546Z,74.9
2023-05-06T19:20:15.578Z,74.7
2023-05-06T19:25:15.467Z,74.9
2023-05-06T19:30:15.653Z,75.2
2023-05-06T19:35:15.684Z,75.2
2023-05-06T19:40:15.568Z,75.2
2023-05-06T19:45:16.766Z,75.6
2023-05-06T19:50:15.566Z,75.5
2023-05-06T19:55:15.603Z,75.9
2023-05-06T20:00:15.607Z,75.1
2023-05-06T20:05:15.732Z,73.8
2023-05-06T20:10:15.624Z,73.1
2023-05-06T20:15:15.707Z,72.3
2023-05-06T20:20:15.755Z,71.5
2023-05-06T20:25:15.644Z,71.5
2023-05-06T20:30:15.772Z,72.2
2023-05-06T20:35:15.764Z,72.8
2023-05-06T20:40:15.667Z,72.6
2023-05-06T20:45:15.748Z,72.5
2023-05-06T20:50:15.663Z,72.6
2023-05-06T20:55:15.988Z,73.5
2023-05-06T21:00:15.730Z,74.0
2023-05-06T21:05:15.714Z,74.9
2023-05-06T21:10:15.886Z,75.8
2023-05-06T21:15:15.773Z,75.7
2023-05-06T21:20:15.692Z,75.4
2023-05-06T21:25:15.818Z,75.3
2023-05-06T21:30:15.901Z,75.2
2023-05-06T21:35:15.825Z,74.9
2023-05-06T21:40:15.923Z,73.9
2023-05-06T21:45:15.960Z,73.4
2023-05-06T21:50:15.855Z,73.4
2023-05-06T21:55:15.953Z,73.6
2023-05-06T22:00:15.875Z,73.5
2023-05-06T22:05:15.904Z,73.4
2023-05-06T22:10:15.963Z,72.8
2023-05-06T22:15:15.958Z,72.5
2023-05-06T22:20:16.136Z,72.4
2023-05-06T22:25:16.035Z,71.8
2023-05-06T22:30:16.025Z,70.8
2023-05-06T22:35:16.129Z,70.8
2023-05-06T22:40:16.063Z,70.6
2023-05-06T22:45:16.020Z,69.8
2023-05-06T22:50:15.974Z,69.4
2023-05-06T22:55:15.935Z,69.1
2023-05-06T23:00:15.999Z,68.6
2023-05-06T23:05:16.052Z,68.4
2023-05-06T23:10:16.285Z,68.0
2023-05-06T23:15:16.058Z,67.4
2023-05-06T23:20:16.024Z,66.6
2023-05-06T23:25:16.443Z,66.2
2023-05-06T23:30:16.091Z,66.0
2023-05-06T23:35:16.029Z,65.4
2023-05-06T23:40:16.482Z,65.1
2023-05-06T23:45:16.487Z,64.7
2023-05-06T23:50:16.056Z,64.3
2023-05-06T23:55:16.173Z,64.0
